sensor_id;sensor_type;location;lat;lon;timestamp;pressure;altitude;pressure_sealevel;temperature;humidity
60019;BME280;45870;42.528;26.740;2023-04-08T00:01:23;100071.75;;;12.15;45.82
60019;BME280;45870;42.528;26.740;2023-04-08T00:03:48;100072.19;;;11.77;46.49
60019;BME280;45870;42.528;26.740;2023-04-08T00:06:14;100065.13;;;12.46;45.74
60019;BME280;45870;42.528;26.740;2023-04-08T00:08:40;100069.81;;;13.02;44.29
60019;BME280;45870;42.528;26.740;2023-04-08T00:11:06;100061.56;;;14.15;41.82
60019;BME280;45870;42.528;26.740;2023-04-08T00:13:31;100062.88;;;14.68;40.17
60019;BME280;45870;42.528;26.740;2023-04-08T00:15:57;100057.53;;;15.16;38.80
60019;BME280;45870;42.528;26.740;2023-04-08T00:18:23;100064.63;;;14.74;38.91
60019;BME280;45870;42.528;26.740;2023-04-08T00:20:49;100031.03;;;14.41;39.24
60019;BME280;45870;42.528;26.740;2023-04-08T00:23:14;100055.81;;;14.67;39.29
60019;BME280;45870;42.528;26.740;2023-04-08T00:25:40;100052.69;;;14.03;40.31
60019;BME280;45870;42.528;26.740;2023-04-08T00:28:06;100033.00;;;12.89;42.79
60019;BME280;45870;42.528;26.740;2023-04-08T00:30:31;100060.59;;;14.05;41.01
60019;BME280;45870;42.528;26.740;2023-04-08T00:32:57;100063.16;;;14.66;39.82
60019;BME280;45870;42.528;26.740;2023-04-08T00:35:23;100067.06;;;15.19;38.87
60019;BME280;45870;42.528;26.740;2023-04-08T00:37:49;100060.22;;;15.65;37.43
60019;BME280;45870;42.528;26.740;2023-04-08T00:40:14;100056.16;;;15.67;37.48
60019;BME280;45870;42.528;26.740;2023-04-08T00:42:40;100058.81;;;15.94;37.17
60019;BME280;45870;42.528;26.740;2023-04-08T00:45:07;100055.16;;;15.78;37.08
60019;BME280;45870;42.528;26.740;2023-04-08T00:47:35;100055.69;;;15.00;38.25
60019;BME280;45870;42.528;26.740;2023-04-08T00:50:01;100055.22;;;13.15;42.08
60019;BME280;45870;42.528;26.740;2023-04-08T00:52:26;100047.31;;;11.57;46.89
60019;BME280;45870;42.528;26.740;2023-04-08T00:54:52;100047.66;;;10.71;50.56
60019;BME280;45870;42.528;26.740;2023-04-08T00:57:17;100045.03;;;10.83;50.65
60019;BME280;45870;42.528;26.740;2023-04-08T00:59:43;100049.16;;;10.67;51.29
60019;BME280;45870;42.528;26.740;2023-04-08T01:02:14;100040.19;;;11.03;50.83
60019;BME280;45870;42.528;26.740;2023-04-08T01:07:25;100042.41;;;12.59;46.01
60019;BME280;45870;42.528;26.740;2023-04-08T01:09:55;100040.31;;;12.89;45.46
60019;BME280;45870;42.528;26.740;2023-04-08T01:12:26;100035.88;;;12.83;44.60
60019;BME280;45870;42.528;26.740;2023-04-08T01:14:59;100036.44;;;12.22;45.27
60019;BME280;45870;42.528;26.740;2023-04-08T01:17:28;100040.16;;;11.21;47.40
60019;BME280;45870;42.528;26.740;2023-04-08T01:19:56;100040.91;;;11.93;45.71
60019;BME280;45870;42.528;26.740;2023-04-08T01:25:05;99998.78;;;10.61;48.92
60019;BME280;45870;42.528;26.740;2023-04-08T01:27:33;100041.16;;;12.03;45.94
60019;BME280;45870;42.528;26.740;2023-04-08T01:30:02;100040.03;;;12.62;43.63
60019;BME280;45870;42.528;26.740;2023-04-08T01:32:29;100036.59;;;13.07;43.97
60019;BME280;45870;42.528;26.740;2023-04-08T01:34:57;100039.13;;;13.53;42.10
60019;BME280;45870;42.528;26.740;2023-04-08T01:37:24;100043.91;;;13.18;43.41
60019;BME280;45870;42.528;26.740;2023-04-08T01:39:51;100022.75;;;12.91;42.57
60019;BME280;45870;42.528;26.740;2023-04-08T01:42:17;100046.59;;;13.63;41.30
60019;BME280;45870;42.528;26.740;2023-04-08T01:44:43;100044.75;;;12.95;42.74
60019;BME280;45870;42.528;26.740;2023-04-08T01:47:11;100045.06;;;14.00;40.99
60019;BME280;45870;42.528;26.740;2023-04-08T01:49:38;100049.84;;;13.93;40.84
60019;BME280;45870;42.528;26.740;2023-04-08T01:52:05;100045.09;;;12.98;42.38
60019;BME280;45870;42.528;26.740;2023-04-08T01:54:32;100044.13;;;11.60;45.63
60019;BME280;45870;42.528;26.740;2023-04-08T01:57:01;100047.22;;;13.36;42.40
60019;BME280;45870;42.528;26.740;2023-04-08T01:59:32;100026.22;;;13.60;41.28
60019;BME280;45870;42.528;26.740;2023-04-08T02:02:01;100049.56;;;13.61;42.10
60019;BME280;45870;42.528;26.740;2023-04-08T02:04:28;100050.91;;;13.92;40.92
60019;BME280;45870;42.528;26.740;2023-04-08T02:06:55;100052.13;;;13.84;41.12
60019;BME280;45870;42.528;26.740;2023-04-08T02:09:20;100046.50;;;14.08;40.41
60019;BME280;45870;42.528;26.740;2023-04-08T02:11:46;100050.97;;;13.19;41.91
60019;BME280;45870;42.528;26.740;2023-04-08T02:14:12;100049.75;;;12.35;44.16
60019;BME280;45870;42.528;26.740;2023-04-08T02:16:53;100041.38;;;13.28;41.42
60019;BME280;45870;42.528;26.740;2023-04-08T02:19:26;100050.31;;;12.48;43.44
60019;BME280;45870;42.528;26.740;2023-04-08T02:22:03;100057.06;;;12.74;42.95
60019;BME280;45870;42.528;26.740;2023-04-08T02:24:31;100053.59;;;12.04;44.41
60019;BME280;45870;42.528;26.740;2023-04-08T02:26:59;100051.94;;;11.80;44.54
60019;BME280;45870;42.528;26.740;2023-04-08T02:29:25;99981.41;;;9.78;48.07
60019;BME280;45870;42.528;26.740;2023-04-08T02:31:54;100057.59;;;11.78;44.40
60019;BME280;45870;42.528;26.740;2023-04-08T02:34:21;100051.59;;;11.76;44.51
60019;BME280;45870;42.528;26.740;2023-04-08T02:36:47;100059.00;;;12.50;42.85
60019;BME280;45870;42.528;26.740;2023-04-08T02:39:15;100053.97;;;12.19;43.13
60019;BME280;45870;42.528;26.740;2023-04-08T02:41:41;100060.13;;;12.78;41.67
60019;BME280;45870;42.528;26.740;2023-04-08T02:44:08;100054.75;;;13.06;41.47
60019;BME280;45870;42.528;26.740;2023-04-08T02:46:34;100054.97;;;12.65;41.83
60019;BME280;45870;42.528;26.740;2023-04-08T02:48:59;100062.19;;;12.36;40.69
60019;BME280;45870;42.528;26.740;2023-04-08T02:51:25;100061.84;;;12.32;41.50
60019;BME280;45870;42.528;26.740;2023-04-08T02:53:52;100065.63;;;12.31;41.90
60019;BME280;45870;42.528;26.740;2023-04-08T02:56:18;100067.25;;;12.32;43.05
60019;BME280;45870;42.528;26.740;2023-04-08T02:58:44;100028.22;;;11.82;43.14
60019;BME280;45870;42.528;26.740;2023-04-08T03:01:09;100064.63;;;12.61;41.11
60019;BME280;45870;42.528;26.740;2023-04-08T03:03:35;100065.72;;;12.48;42.23
60019;BME280;45870;42.528;26.740;2023-04-08T03:06:02;100061.44;;;12.64;41.79
60019;BME280;45870;42.528;26.740;2023-04-08T03:08:28;100070.06;;;12.49;41.87
60019;BME280;45870;42.528;26.740;2023-04-08T03:10:53;100065.72;;;12.36;42.73
60019;BME280;45870;42.528;26.740;2023-04-08T03:13:19;100063.88;;;12.14;42.80
60019;BME280;45870;42.528;26.740;2023-04-08T03:15:45;100066.56;;;11.49;44.97
60019;BME280;45870;42.528;26.740;2023-04-08T03:18:10;100072.63;;;11.33;45.40
60019;BME280;45870;42.528;26.740;2023-04-08T03:20:36;100067.59;;;11.78;44.46
60019;BME280;45870;42.528;26.740;2023-04-08T03:23:02;100066.34;;;12.38;42.38
60019;BME280;45870;42.528;26.740;2023-04-08T03:25:27;100036.63;;;11.21;44.59
60019;BME280;45870;42.528;26.740;2023-04-08T03:27:54;100066.91;;;12.29;42.34
60019;BME280;45870;42.528;26.740;2023-04-08T03:30:20;100068.50;;;11.72;43.24
60019;BME280;45870;42.528;26.740;2023-04-08T03:32:45;100073.72;;;11.55;43.94
60019;BME280;45870;42.528;26.740;2023-04-08T03:35:11;100069.03;;;11.21;45.36
60019;BME280;45870;42.528;26.740;2023-04-08T03:37:37;100066.19;;;11.87;43.22
60019;BME280;45870;42.528;26.740;2023-04-08T03:40:03;100074.00;;;12.07;41.79
60019;BME280;45870;42.528;26.740;2023-04-08T03:42:28;100071.63;;;11.69;43.28
60019;BME280;45870;42.528;26.740;2023-04-08T03:44:54;100073.75;;;11.67;43.03
60019;BME280;45870;42.528;26.740;2023-04-08T03:47:20;100081.25;;;11.53;43.07
60019;BME280;45870;42.528;26.740;2023-04-08T03:49:45;100079.53;;;11.29;43.58
60019;BME280;45870;42.528;26.740;2023-04-08T03:52:11;100081.91;;;11.07;43.59
60019;BME280;45870;42.528;26.740;2023-04-08T03:54:37;100075.97;;;10.98;44.36
60019;BME280;45870;42.528;26.740;2023-04-08T03:57:02;100063.34;;;11.40;43.51
60019;BME280;45870;42.528;26.740;2023-04-08T03:59:28;100087.59;;;11.59;44.24
60019;BME280;45870;42.528;26.740;2023-04-08T04:01:54;100096.50;;;11.47;44.32
60019;BME280;45870;42.528;26.740;2023-04-08T04:04:19;100091.97;;;12.47;42.54
60019;BME280;45870;42.528;26.740;2023-04-08T04:06:45;100093.50;;;12.43;42.22
60019;BME280;45870;42.528;26.740;2023-04-08T04:09:11;100092.00;;;12.99;40.69
60019;BME280;45870;42.528;26.740;2023-04-08T04:11:36;100092.16;;;13.32;39.46
60019;BME280;45870;42.528;26.740;2023-04-08T04:14:02;100100.53;;;13.76;39.17
60019;BME280;45870;42.528;26.740;2023-04-08T04:16:28;100078.03;;;13.92;38.08
60019;BME280;45870;42.528;26.740;2023-04-08T04:18:54;100094.66;;;14.45;37.49
60019;BME280;45870;42.528;26.740;2023-04-08T04:21:20;100045.53;;;12.79;39.21
60019;BME280;45870;42.528;26.740;2023-04-08T04:23:45;100096.13;;;14.20;38.03
60019;BME280;45870;42.528;26.740;2023-04-08T04:26:11;100101.38;;;14.43;37.67
60019;BME280;45870;42.528;26.740;2023-04-08T04:28:37;100107.00;;;14.96;36.77
60019;BME280;45870;42.528;26.740;2023-04-08T04:31:03;100115.03;;;15.78;35.54
60019;BME280;45870;42.528;26.740;2023-04-08T04:33:29;100108.78;;;15.29;36.60
60019;BME280;45870;42.528;26.740;2023-04-08T04:35:55;100105.09;;;14.37;39.38
60019;BME280;45870;42.528;26.740;2023-04-08T04:38:21;100095.97;;;13.48;41.94
60019;BME280;45870;42.528;26.740;2023-04-08T04:40:47;100101.47;;;13.98;41.00
60019;BME280;45870;42.528;26.740;2023-04-08T04:43:13;100113.03;;;13.77;41.99
60019;BME280;45870;42.528;26.740;2023-04-08T04:45:38;100113.47;;;12.77;45.23
60019;BME280;45870;42.528;26.740;2023-04-08T04:48:04;100114.28;;;12.78;44.29
60019;BME280;45870;42.528;26.740;2023-04-08T04:50:30;100112.84;;;12.98;44.22
60019;BME280;45870;42.528;26.740;2023-04-08T04:52:55;100129.00;;;13.45;43.67
60019;BME280;45870;42.528;26.740;2023-04-08T04:55:21;100131.09;;;13.26;44.43
60019;BME280;45870;42.528;26.740;2023-04-08T04:57:47;100135.41;;;13.84;43.06
60019;BME280;45870;42.528;26.740;2023-04-08T05:00:16;100135.94;;;16.31;38.58
60019;BME280;45870;42.528;26.740;2023-04-08T05:02:42;100126.69;;;16.37;37.52
60019;BME280;45870;42.528;26.740;2023-04-08T05:05:08;100139.41;;;15.95;38.89
60019;BME280;45870;42.528;26.740;2023-04-08T05:07:37;100141.31;;;13.81;43.27
60019;BME280;45870;42.528;26.740;2023-04-08T05:10:04;100138.69;;;14.86;41.42
60019;BME280;45870;42.528;26.740;2023-04-08T05:12:30;100131.78;;;13.78;42.79
60019;BME280;45870;42.528;26.740;2023-04-08T05:14:57;100139.94;;;12.98;45.22
60019;BME280;45870;42.528;26.740;2023-04-08T05:17:24;100140.28;;;13.54;44.49
60019;BME280;45870;42.528;26.740;2023-04-08T05:19:50;100135.69;;;13.26;45.68
60019;BME280;45870;42.528;26.740;2023-04-08T05:22:17;100074.84;;;12.82;45.29
60019;BME280;45870;42.528;26.740;2023-04-08T05:24:43;100141.31;;;13.81;45.22
60019;BME280;45870;42.528;26.740;2023-04-08T05:27:08;100142.63;;;13.33;46.54
60019;BME280;45870;42.528;26.740;2023-04-08T05:29:34;100140.78;;;13.50;45.12
60019;BME280;45870;42.528;26.740;2023-04-08T05:32:00;100138.59;;;14.42;44.68
60019;BME280;45870;42.528;26.740;2023-04-08T05:34:25;100133.78;;;14.16;44.61
60019;BME280;45870;42.528;26.740;2023-04-08T05:36:51;100149.25;;;13.54;46.88
60019;BME280;45870;42.528;26.740;2023-04-08T05:39:18;100152.50;;;13.84;46.29
60019;BME280;45870;42.528;26.740;2023-04-08T05:41:44;100139.16;;;14.28;46.28
60019;BME280;45870;42.528;26.740;2023-04-08T05:44:10;100137.00;;;14.30;46.27
60019;BME280;45870;42.528;26.740;2023-04-08T05:46:39;100148.78;;;13.74;47.61
60019;BME280;45870;42.528;26.740;2023-04-08T05:49:05;100151.97;;;13.99;49.89
60019;BME280;45870;42.528;26.740;2023-04-08T05:51:30;100107.75;;;13.54;49.46
60019;BME280;45870;42.528;26.740;2023-04-08T05:53:56;100126.84;;;13.19;51.04
60019;BME280;45870;42.528;26.740;2023-04-08T05:56:21;100143.69;;;13.21;51.79
60019;BME280;45870;42.528;26.740;2023-04-08T05:58:47;100129.47;;;13.70;51.69
60019;BME280;45870;42.528;26.740;2023-04-08T06:01:13;100121.31;;;14.32;49.25
60019;BME280;45870;42.528;26.740;2023-04-08T06:03:38;100124.03;;;14.48;49.59
60019;BME280;45870;42.528;26.740;2023-04-08T06:06:10;100124.16;;;14.25;49.51
60019;BME280;45870;42.528;26.740;2023-04-08T06:08:36;100127.44;;;13.94;49.70
60019;BME280;45870;42.528;26.740;2023-04-08T06:11:02;100104.19;;;13.25;50.79
60019;BME280;45870;42.528;26.740;2023-04-08T06:13:30;100101.38;;;14.60;48.91
60019;BME280;45870;42.528;26.740;2023-04-08T06:15:57;100054.06;;;14.77;47.01
60019;BME280;45870;42.528;26.740;2023-04-08T06:18:22;100119.28;;;14.99;48.17
60019;BME280;45870;42.528;26.740;2023-04-08T06:20:48;100121.69;;;14.74;48.56
60019;BME280;45870;42.528;26.740;2023-04-08T06:23:13;100115.81;;;15.04;47.88
60019;BME280;45870;42.528;26.740;2023-04-08T06:25:39;100122.50;;;14.58;48.53
60019;BME280;45870;42.528;26.740;2023-04-08T06:28:06;100111.16;;;14.61;48.74
60019;BME280;45870;42.528;26.740;2023-04-08T06:30:32;100121.50;;;14.64;49.53
60019;BME280;45870;42.528;26.740;2023-04-08T06:32:57;100133.25;;;15.08;48.67
60019;BME280;45870;42.528;26.740;2023-04-08T06:35:23;100125.75;;;15.15;48.12
60019;BME280;45870;42.528;26.740;2023-04-08T06:37:49;100134.25;;;15.93;45.43
60019;BME280;45870;42.528;26.740;2023-04-08T06:40:15;100130.50;;;14.31;49.01
60019;BME280;45870;42.528;26.740;2023-04-08T06:42:40;100123.88;;;15.42;48.15
60019;BME280;45870;42.528;26.740;2023-04-08T06:45:09;100133.16;;;15.19;48.21
60019;BME280;45870;42.528;26.740;2023-04-08T06:47:35;100139.78;;;15.50;46.63
60019;BME280;45870;42.528;26.740;2023-04-08T06:50:01;100132.22;;;14.70;49.75
60019;BME280;45870;42.528;26.740;2023-04-08T06:52:26;100127.63;;;14.92;49.46
60019;BME280;45870;42.528;26.740;2023-04-08T06:54:52;100136.25;;;15.49;48.05
60019;BME280;45870;42.528;26.740;2023-04-08T06:57:18;100134.84;;;15.25;49.15
60019;BME280;45870;42.528;26.740;2023-04-08T06:59:43;100139.22;;;15.26;50.04
60019;BME280;45870;42.528;26.740;2023-04-08T07:02:09;100141.09;;;15.04;49.35
60019;BME280;45870;42.528;26.740;2023-04-08T07:04:35;100145.91;;;14.59;50.71
60019;BME280;45870;42.528;26.740;2023-04-08T07:07:01;100150.00;;;14.61;51.31
60019;BME280;45870;42.528;26.740;2023-04-08T07:09:26;100157.03;;;14.40;50.28
60019;BME280;45870;42.528;26.740;2023-04-08T07:11:52;100141.34;;;15.02;51.37
60019;BME280;45870;42.528;26.740;2023-04-08T07:14:18;100154.28;;;14.95;50.03
60019;BME280;45870;42.528;26.740;2023-04-08T07:16:44;100159.19;;;15.59;49.01
60019;BME280;45870;42.528;26.740;2023-04-08T07:19:10;100169.06;;;15.43;48.93
60019;BME280;45870;42.528;26.740;2023-04-08T07:21:36;100172.31;;;15.88;48.27
60019;BME280;45870;42.528;26.740;2023-04-08T07:24:01;100181.16;;;16.01;47.74
60019;BME280;45870;42.528;26.740;2023-04-08T07:26:27;100183.44;;;15.87;47.48
60019;BME280;45870;42.528;26.740;2023-04-08T07:28:53;100179.59;;;16.78;46.68
60019;BME280;45870;42.528;26.740;2023-04-08T07:31:18;100182.69;;;17.44;45.32
60019;BME280;45870;42.528;26.740;2023-04-08T07:33:44;100146.69;;;16.85;44.78
60019;BME280;45870;42.528;26.740;2023-04-08T07:36:11;100186.88;;;17.67;44.23
60019;BME280;45870;42.528;26.740;2023-04-08T07:38:38;100132.19;;;16.74;44.40
60019;BME280;45870;42.528;26.740;2023-04-08T07:41:05;100189.19;;;18.30;42.79
60019;BME280;45870;42.528;26.740;2023-04-08T07:43:32;100187.81;;;17.98;41.85
60019;BME280;45870;42.528;26.740;2023-04-08T07:46:02;100181.50;;;18.98;40.97
60019;BME280;45870;42.528;26.740;2023-04-08T07:48:29;100188.38;;;18.75;39.88
60019;BME280;45870;42.528;26.740;2023-04-08T07:50:55;100161.53;;;20.11;36.58
60019;BME280;45870;42.528;26.740;2023-04-08T07:53:21;100178.16;;;19.85;39.71
60019;BME280;45870;42.528;26.740;2023-04-08T07:55:49;100191.09;;;18.10;41.61
60019;BME280;45870;42.528;26.740;2023-04-08T07:58:15;100181.75;;;19.12;38.70
60019;BME280;45870;42.528;26.740;2023-04-08T08:00:40;100182.03;;;19.05;41.54
60019;BME280;45870;42.528;26.740;2023-04-08T08:03:06;100184.97;;;17.62;43.25
60019;BME280;45870;42.528;26.740;2023-04-08T08:05:32;100180.22;;;18.60;40.11
60019;BME280;45870;42.528;26.740;2023-04-08T08:07:57;100176.63;;;18.65;40.51
60019;BME280;45870;42.528;26.740;2023-04-08T08:10:23;100179.59;;;18.03;40.25
60019;BME280;45870;42.528;26.740;2023-04-08T08:12:49;100183.19;;;21.32;33.90
60019;BME280;45870;42.528;26.740;2023-04-08T08:15:15;100183.19;;;19.68;37.73
60019;BME280;45870;42.528;26.740;2023-04-08T08:17:41;100187.53;;;19.74;36.18
60019;BME280;45870;42.528;26.740;2023-04-08T08:20:07;100194.38;;;19.77;38.63
60019;BME280;45870;42.528;26.740;2023-04-08T08:22:33;100183.22;;;20.07;36.62
60019;BME280;45870;42.528;26.740;2023-04-08T08:24:58;100177.72;;;18.74;37.34
60019;BME280;45870;42.528;26.740;2023-04-08T08:27:24;100145.19;;;21.39;32.04
60019;BME280;45870;42.528;26.740;2023-04-08T08:29:50;100187.81;;;21.08;35.70
60019;BME280;45870;42.528;26.740;2023-04-08T08:32:17;100189.78;;;18.68;39.03
60019;BME280;45870;42.528;26.740;2023-04-08T08:34:43;100168.34;;;19.74;36.65
60019;BME280;45870;42.528;26.740;2023-04-08T08:37:08;100191.56;;;19.87;36.29
60019;BME280;45870;42.528;26.740;2023-04-08T08:39:34;100187.41;;;20.38;34.96
60019;BME280;45870;42.528;26.740;2023-04-08T08:42:00;100185.84;;;21.61;31.64
60019;BME280;45870;42.528;26.740;2023-04-08T08:44:26;100182.50;;;22.58;31.94
60019;BME280;45870;42.528;26.740;2023-04-08T08:46:52;100175.41;;;20.29;35.83
60019;BME280;45870;42.528;26.740;2023-04-08T08:49:18;100166.97;;;19.13;36.02
60019;BME280;45870;42.528;26.740;2023-04-08T08:51:47;100097.72;;;20.68;33.00
60019;BME280;45870;42.528;26.740;2023-04-08T08:54:14;100129.31;;;21.98;30.40
60019;BME280;45870;42.528;26.740;2023-04-08T08:56:40;100140.56;;;19.47;35.78
60019;BME280;45870;42.528;26.740;2023-04-08T08:59:08;100158.09;;;21.81;33.72
60019;BME280;45870;42.528;26.740;2023-04-08T09:01:38;100150.91;;;19.60;34.26
60019;BME280;45870;42.528;26.740;2023-04-08T09:04:15;100147.69;;;20.65;32.83
60019;BME280;45870;42.528;26.740;2023-04-08T09:06:43;100143.75;;;22.73;30.73
60019;BME280;45870;42.528;26.740;2023-04-08T09:09:09;100145.91;;;21.03;33.59
60019;BME280;45870;42.528;26.740;2023-04-08T09:11:37;100142.13;;;21.22;34.73
60019;BME280;45870;42.528;26.740;2023-04-08T09:14:04;100145.94;;;21.26;33.02
60019;BME280;45870;42.528;26.740;2023-04-08T09:16:31;100141.91;;;22.96;29.31
60019;BME280;45870;42.528;26.740;2023-04-08T09:19:08;100151.78;;;21.20;31.64
60019;BME280;45870;42.528;26.740;2023-04-08T09:21:36;100157.09;;;21.54;30.62
60019;BME280;45870;42.528;26.740;2023-04-08T09:24:01;100151.22;;;19.54;34.77
60019;BME280;45870;42.528;26.740;2023-04-08T09:26:27;100157.22;;;20.05;31.91
60019;BME280;45870;42.528;26.740;2023-04-08T09:29:07;100156.53;;;21.57;30.58
60019;BME280;45870;42.528;26.740;2023-04-08T09:31:36;100098.25;;;20.70;31.09
60019;BME280;45870;42.528;26.740;2023-04-08T09:34:13;100147.91;;;20.39;33.77
60019;BME280;45870;42.528;26.740;2023-04-08T09:36:39;100146.78;;;18.83;36.55
60019;BME280;45870;42.528;26.740;2023-04-08T09:39:05;100134.16;;;18.98;37.72
60019;BME280;45870;42.528;26.740;2023-04-08T09:41:36;100093.41;;;20.85;31.70
60019;BME280;45870;42.528;26.740;2023-04-08T09:44:07;100136.94;;;22.01;31.15
60019;BME280;45870;42.528;26.740;2023-04-08T09:46:55;100132.03;;;23.49;29.14
60019;BME280;45870;42.528;26.740;2023-04-08T09:49:33;100123.66;;;20.52;31.86
60019;BME280;45870;42.528;26.740;2023-04-08T09:54:54;100136.44;;;19.55;32.03
60019;BME280;45870;42.528;26.740;2023-04-08T10:00:15;100126.25;;;20.67;32.17
60019;BME280;45870;42.528;26.740;2023-04-08T10:05:14;100131.78;;;23.73;28.39
60019;BME280;45870;42.528;26.740;2023-04-08T10:07:41;100115.97;;;19.42;36.45
60019;BME280;45870;42.528;26.740;2023-04-08T10:10:07;100058.09;;;19.10;35.54
60019;BME280;45870;42.528;26.740;2023-04-08T10:12:36;100123.06;;;19.43;35.93
60019;BME280;45870;42.528;26.740;2023-04-08T10:15:25;100128.00;;;20.58;33.28
60019;BME280;45870;42.528;26.740;2023-04-08T10:17:53;100111.69;;;21.42;29.52
60019;BME280;45870;42.528;26.740;2023-04-08T10:23:05;100109.13;;;20.22;35.88
60019;BME280;45870;42.528;26.740;2023-04-08T10:30:54;100114.63;;;19.78;33.57
60019;BME280;45870;42.528;26.740;2023-04-08T10:36:07;100106.66;;;18.38;34.93
60019;BME280;45870;42.528;26.740;2023-04-08T10:38:34;100043.97;;;20.43;32.15
60019;BME280;45870;42.528;26.740;2023-04-08T10:41:00;100098.78;;;20.09;35.98
60019;BME280;45870;42.528;26.740;2023-04-08T10:43:31;100097.56;;;20.25;33.50
60019;BME280;45870;42.528;26.740;2023-04-08T10:45:57;100101.91;;;21.13;32.16
60019;BME280;45870;42.528;26.740;2023-04-08T10:48:24;100100.34;;;20.20;35.13
60019;BME280;45870;42.528;26.740;2023-04-08T10:50:58;100096.50;;;20.21;34.49
60019;BME280;45870;42.528;26.740;2023-04-08T10:53:32;100096.16;;;22.08;29.81
60019;BME280;45870;42.528;26.740;2023-04-08T10:58:29;100089.66;;;20.53;33.53
60019;BME280;45870;42.528;26.740;2023-04-08T11:01:01;100066.94;;;20.18;33.34
60019;BME280;45870;42.528;26.740;2023-04-08T11:03:27;100084.31;;;19.16;36.19
60019;BME280;45870;42.528;26.740;2023-04-08T11:05:56;100082.47;;;19.01;35.18
60019;BME280;45870;42.528;26.740;2023-04-08T11:08:32;100081.25;;;20.10;33.23
60019;BME280;45870;42.528;26.740;2023-04-08T11:11:00;100083.53;;;20.61;32.04
60019;BME280;45870;42.528;26.740;2023-04-08T11:13:27;100072.16;;;19.37;33.88
60019;BME280;45870;42.528;26.740;2023-04-08T11:15:54;100077.81;;;21.84;32.36
60019;BME280;45870;42.528;26.740;2023-04-08T11:18:21;100073.75;;;20.21;32.70
60019;BME280;45870;42.528;26.740;2023-04-08T11:20:51;100062.56;;;19.39;34.83
60019;BME280;45870;42.528;26.740;2023-04-08T11:23:18;100056.28;;;21.17;32.14
60019;BME280;45870;42.528;26.740;2023-04-08T11:25:45;100065.16;;;19.99;34.08
60019;BME280;45870;42.528;26.740;2023-04-08T11:28:12;100061.25;;;21.33;34.43
60019;BME280;45870;42.528;26.740;2023-04-08T11:30:39;100064.78;;;21.15;31.49
60019;BME280;45870;42.528;26.740;2023-04-08T11:33:06;100064.56;;;21.12;34.41
60019;BME280;45870;42.528;26.740;2023-04-08T11:35:33;100018.38;;;21.37;29.31
60019;BME280;45870;42.528;26.740;2023-04-08T11:37:59;100054.66;;;20.11;31.42
60019;BME280;45870;42.528;26.740;2023-04-08T11:40:25;100060.16;;;22.69;28.55
60019;BME280;45870;42.528;26.740;2023-04-08T11:42:51;100058.16;;;21.77;30.18
60019;BME280;45870;42.528;26.740;2023-04-08T11:45:19;100064.34;;;18.26;37.23
60019;BME280;45870;42.528;26.740;2023-04-08T11:47:48;100055.34;;;19.10;33.69
60019;BME280;45870;42.528;26.740;2023-04-08T11:50:23;100060.09;;;19.87;34.06
60019;BME280;45870;42.528;26.740;2023-04-08T11:52:50;100057.06;;;18.95;35.43
60019;BME280;45870;42.528;26.740;2023-04-08T11:55:28;100058.38;;;19.57;34.24
60019;BME280;45870;42.528;26.740;2023-04-08T11:58:01;100050.22;;;19.52;34.66
60019;BME280;45870;42.528;26.740;2023-04-08T12:00:28;100019.13;;;20.01;33.62
60019;BME280;45870;42.528;26.740;2023-04-08T12:02:54;100047.75;;;19.84;34.00
60019;BME280;45870;42.528;26.740;2023-04-08T12:05:19;100035.75;;;18.82;35.74
60019;BME280;45870;42.528;26.740;2023-04-08T12:07:46;100031.94;;;19.37;35.36
60019;BME280;45870;42.528;26.740;2023-04-08T12:10:12;100040.13;;;18.88;36.54
60019;BME280;45870;42.528;26.740;2023-04-08T12:12:38;99981.19;;;18.57;35.69
60019;BME280;45870;42.528;26.740;2023-04-08T12:15:05;100014.94;;;18.91;36.27
60019;BME280;45870;42.528;26.740;2023-04-08T12:17:32;100030.25;;;19.47;34.43
60019;BME280;45870;42.528;26.740;2023-04-08T12:19:58;100020.28;;;19.12;36.06
60019;BME280;45870;42.528;26.740;2023-04-08T12:22:24;100032.78;;;20.06;34.64
60019;BME280;45870;42.528;26.740;2023-04-08T12:24:50;100009.63;;;18.51;37.53
60019;BME280;45870;42.528;26.740;2023-04-08T12:27:15;100016.81;;;17.91;38.48
60019;BME280;45870;42.528;26.740;2023-04-08T12:29:41;100020.66;;;17.65;40.58
60019;BME280;45870;42.528;26.740;2023-04-08T12:32:07;100007.78;;;17.51;38.61
60019;BME280;45870;42.528;26.740;2023-04-08T12:34:33;100002.63;;;17.89;40.30
60019;BME280;45870;42.528;26.740;2023-04-08T12:36:59;100011.03;;;18.23;38.93
60019;BME280;45870;42.528;26.740;2023-04-08T12:39:25;100022.00;;;17.58;40.44
60019;BME280;45870;42.528;26.740;2023-04-08T12:41:50;100016.53;;;18.08;39.72
60019;BME280;45870;42.528;26.740;2023-04-08T12:44:16;100017.69;;;19.35;37.60
60019;BME280;45870;42.528;26.740;2023-04-08T12:46:42;99964.59;;;18.23;37.39
60019;BME280;45870;42.528;26.740;2023-04-08T12:49:07;100022.44;;;17.09;44.10
60019;BME280;45870;42.528;26.740;2023-04-08T12:51:34;100019.97;;;16.50;44.62
60019;BME280;45870;42.528;26.740;2023-04-08T12:54:03;100007.38;;;16.34;45.09
60019;BME280;45870;42.528;26.740;2023-04-08T12:56:30;100027.03;;;16.98;44.23
60019;BME280;45870;42.528;26.740;2023-04-08T12:58:57;100007.41;;;16.44;45.04
60019;BME280;45870;42.528;26.740;2023-04-08T13:01:23;100025.84;;;16.27;45.45
60019;BME280;45870;42.528;26.740;2023-04-08T13:03:49;100024.19;;;16.21;46.20
60019;BME280;45870;42.528;26.740;2023-04-08T13:06:15;100024.88;;;16.48;45.44